Time;durP1;ratioP1;P1;durP2;ratioP2;P2;SDS_P1;SDS_P2;PMS_P1;PMS_P2;Temp;Humidity;BMP_temperature;BMP_pressure;BME280_temperature;BME280_humidity;BME280_pressure;Samples;Min_cycle;Max_cycle;Signal;HPM_P1;HPM_P2
2022/07/12 00:02:16;;;;;;;5.97;3.35;;;;;;;-148.22;100.00;64452.44;5025319;28;20389;-60
2022/07/12 00:04:43;;;;;;;5.53;3.28;;;;;;;-148.22;100.00;64452.44;5024855;28;20045;-60
2022/07/12 00:07:10;;;;;;;5.05;3.17;;;;;;;-148.22;100.00;64452.44;5018949;28;20042;-60
2022/07/12 00:09:36;;;;;;;4.38;3.22;;;;;;;-148.22;100.00;64452.44;5023795;28;20049;-61
2022/07/12 00:12:04;;;;;;;4.72;2.97;;;;;;;-148.22;100.00;64452.44;5025317;28;20042;-61
2022/07/12 00:14:31;;;;;;;5.00;3.45;;;;;;;-148.22;100.00;64452.44;5022509;28;20045;-61
2022/07/12 00:16:57;;;;;;;5.05;3.10;;;;;;;-148.22;100.00;64452.44;5024788;28;20060;-61
2022/07/12 00:19:24;;;;;;;5.05;3.10;;;;;;;-148.22;100.00;64452.44;5022108;28;20029;-60
2022/07/12 00:21:51;;;;;;;5.32;3.50;;;;;;;-148.22;100.00;64452.44;5021215;28;20460;-61
2022/07/12 00:24:18;;;;;;;4.97;3.15;;;;;;;-148.22;100.00;64452.44;5024062;28;20052;-61
2022/07/12 00:26:44;;;;;;;6.13;3.17;;;;;;;-148.22;100.00;64452.44;5025199;28;20496;-62
2022/07/12 00:29:11;;;;;;;4.60;2.95;;;;;;;-148.22;100.00;64452.44;5023097;28;20041;-61
2022/07/12 00:31:38;;;;;;;5.07;3.25;;;;;;;-148.22;100.00;64452.44;5024510;28;20397;-61
2022/07/12 00:34:05;;;;;;;4.85;3.10;;;;;;;-148.22;100.00;64452.44;5020679;28;20048;-60
2022/07/12 00:36:31;;;;;;;5.43;3.42;;;;;;;-148.22;100.00;64452.44;5022332;28;20042;-60
2022/07/12 00:38:58;;;;;;;5.50;3.35;;;;;;;-148.22;100.00;64452.44;5021319;28;20030;-60
2022/07/12 00:41:24;;;;;;;7.45;3.35;;;;;;;-148.22;100.00;64452.44;5023290;28;20049;-62
2022/07/12 00:43:52;;;;;;;5.45;3.33;;;;;;;-148.22;100.00;64452.44;5025077;28;20500;-61
2022/07/12 00:46:22;;;;;;;4.43;3.08;;;;;;;-148.22;100.00;64452.44;5022369;28;20037;-61
2022/07/12 00:48:50;;;;;;;5.60;3.35;;;;;;;-148.22;100.00;64452.44;5024106;28;20513;-61
2022/07/12 00:51:18;;;;;;;4.35;3.17;;;;;;;-148.22;100.00;64452.44;5021757;28;20041;-60
2022/07/12 00:53:45;;;;;;;5.47;3.47;;;;;;;-148.22;100.00;64452.44;5025935;28;20041;-61
2022/07/12 00:56:13;;;;;;;4.95;3.25;;;;;;;-148.22;100.00;64452.44;5014365;28;20049;-61
2022/07/12 00:58:41;;;;;;;4.72;3.17;;;;;;;-148.22;100.00;64452.44;5022851;28;20049;-61
2022/07/12 01:01:09;;;;;;;5.32;2.88;;;;;;;-148.22;100.00;64452.44;5019687;28;20164;-60
2022/07/12 01:03:36;;;;;;;7.20;3.67;;;;;;;-148.22;100.00;64452.44;5014573;28;20057;-61
2022/07/12 01:06:03;;;;;;;5.38;3.15;;;;;;;-148.22;100.00;64452.44;5021332;28;20040;-59
2022/07/12 01:08:30;;;;;;;4.97;2.95;;;;;;;-148.22;100.00;64452.44;5027486;28;20045;-61
2022/07/12 01:10:58;;;;;;;5.25;3.08;;;;;;;-148.22;100.00;64452.44;5019364;28;20160;-60
2022/07/12 01:13:24;;;;;;;6.13;3.10;;;;;;;-148.22;100.00;64452.44;5018691;28;20049;-61
2022/07/12 01:15:53;;;;;;;5.55;3.35;;;;;;;-148.22;100.00;64452.44;5020936;28;20057;-61
2022/07/12 01:18:20;;;;;;;5.28;3.20;;;;;;;-148.22;100.00;64452.44;5022808;28;20218;-61
2022/07/12 01:20:46;;;;;;;4.55;3.10;;;;;;;-148.22;100.00;64452.44;5023267;28;20045;-60
2022/07/12 01:23:13;;;;;;;5.03;3.00;;;;;;;-148.22;100.00;64452.44;5018944;28;20066;-61
2022/07/12 01:25:40;;;;;;;5.13;3.40;;;;;;;-148.22;100.00;64452.44;5022934;28;20046;-60
2022/07/12 01:28:06;;;;;;;4.30;2.70;;;;;;;-148.22;100.00;64452.44;5023629;28;20599;-61
2022/07/12 01:30:33;;;;;;;5.97;3.15;;;;;;;-148.22;100.00;64452.44;5025470;28;20042;-61
2022/07/12 01:33:00;;;;;;;4.40;2.97;;;;;;;-148.22;100.00;64452.44;5020648;28;20046;-61
2022/07/12 01:35:28;;;;;;;5.00;2.92;;;;;;;-148.22;100.00;64452.44;5026611;28;20045;-60
2022/07/12 01:37:55;;;;;;;6.22;2.95;;;;;;;-148.22;100.00;64452.44;5024006;28;20445;-61
2022/07/12 01:40:22;;;;;;;5.68;3.05;;;;;;;-148.22;100.00;64452.44;5024790;28;20036;-60
2022/07/12 01:42:50;;;;;;;4.00;2.80;;;;;;;-148.22;100.00;64452.44;5021870;28;20053;-60
2022/07/12 01:45:17;;;;;;;5.20;3.40;;;;;;;-148.22;100.00;64452.44;5020490;28;20436;-62
2022/07/12 01:47:44;;;;;;;4.35;3.08;;;;;;;-148.22;100.00;64452.44;5023128;28;20500;-61
2022/07/12 01:50:11;;;;;;;4.30;2.88;;;;;;;-148.22;100.00;64452.44;5026872;28;20045;-60
2022/07/12 01:52:41;;;;;;;5.47;3.00;;;;;;;-148.22;100.00;64452.44;5025546;28;20049;-60
2022/07/12 01:55:10;;;;;;;5.95;2.80;;;;;;;-148.22;100.00;64452.44;5024985;28;20073;-62
2022/07/12 01:57:40;;;;;;;4.70;3.15;;;;;;;-148.22;100.00;64452.44;5025395;28;20131;-60
2022/07/12 02:00:07;;;;;;;5.22;2.70;;;;;;;-148.22;100.00;64452.44;5027562;28;20037;-60
2022/07/12 02:02:34;;;;;;;4.57;3.00;;;;;;;-148.22;100.00;64452.44;5027134;28;20041;-63
2022/07/12 02:05:02;;;;;;;5.82;3.08;;;;;;;-148.22;100.00;64452.44;5024059;28;20075;-61
2022/07/12 02:07:28;;;;;;;5.70;3.05;;;;;;;-148.22;100.00;64452.44;5026970;28;20059;-61
2022/07/12 02:09:55;;;;;;;5.10;3.20;;;;;;;-148.22;100.00;64452.44;5026710;28;20107;-63
2022/07/12 02:12:22;;;;;;;4.88;3.08;;;;;;;-148.22;100.00;64452.44;5026644;28;20108;-61
2022/07/12 02:14:49;;;;;;;4.93;2.90;;;;;;;-148.22;100.00;64452.44;5023985;28;20053;-62
2022/07/12 02:17:16;;;;;;;4.88;2.83;;;;;;;-148.22;100.00;64452.44;5026876;28;20049;-62
2022/07/12 02:19:44;;;;;;;3.97;2.47;;;;;;;-148.22;100.00;64452.44;5025560;28;20037;-63
2022/07/12 02:22:10;;;;;;;4.20;2.70;;;;;;;-148.22;100.00;64452.44;5023527;28;20132;-62
2022/07/12 02:24:38;;;;;;;4.63;2.53;;;;;;;-148.22;100.00;64452.44;5024415;28;20078;-62
2022/07/12 02:27:05;;;;;;;5.07;2.88;;;;;;;-148.22;100.00;64452.44;5026194;28;20045;-62
2022/07/12 02:29:32;;;;;;;5.40;2.95;;;;;;;-148.22;100.00;64452.44;5026443;28;20059;-61
2022/07/12 02:32:00;;;;;;;5.03;2.92;;;;;;;-148.22;100.00;64452.44;5022234;28;20053;-62
2022/07/12 02:34:28;;;;;;;5.13;2.90;;;;;;;-148.22;100.00;64452.44;5021702;28;20041;-62
2022/07/12 02:36:54;;;;;;;4.93;2.50;;;;;;;-148.22;100.00;64452.44;5018795;28;20042;-61
2022/07/12 02:39:21;;;;;;;4.38;2.53;;;;;;;-148.22;100.00;64452.44;5026074;28;20049;-61
2022/07/12 02:41:47;;;;;;;4.65;2.60;;;;;;;-148.22;100.00;64452.44;5026677;28;20045;-61
2022/07/12 02:44:14;;;;;;;4.90;2.78;;;;;;;-148.22;100.00;64452.44;5025929;28;20057;-61
2022/07/12 02:46:41;;;;;;;3.97;2.45;;;;;;;-148.22;100.00;64452.44;5024271;28;20049;-62
2022/07/12 02:49:07;;;;;;;6.25;2.70;;;;;;;-148.22;100.00;64452.44;5024360;28;20048;-62
2022/07/12 02:51:34;;;;;;;4.93;2.65;;;;;;;-148.22;100.00;64452.44;5022792;28;20117;-63
2022/07/12 02:54:00;;;;;;;4.50;2.58;;;;;;;-148.22;100.00;64452.44;5028358;28;20057;-62
2022/07/12 02:56:27;;;;;;;3.88;2.33;;;;;;;-148.22;100.00;64452.44;5022572;28;20042;-62
2022/07/12 02:58:54;;;;;;;6.95;2.78;;;;;;;-148.22;100.00;64452.44;5022816;28;20044;-62
2022/07/12 03:01:20;;;;;;;5.95;2.95;;;;;;;-148.22;100.00;64452.44;5022807;28;20041;-63
2022/07/12 03:03:47;;;;;;;4.13;2.35;;;;;;;-148.22;100.00;64452.44;5019250;28;20072;-62
2022/07/12 03:06:13;;;;;;;3.78;2.40;;;;;;;-148.22;100.00;64452.44;5028996;28;20443;-62
2022/07/12 03:08:40;;;;;;;3.78;2.38;;;;;;;-148.22;100.00;64452.44;5033257;28;20049;-61
2022/07/12 03:11:07;;;;;;;3.78;2.50;;;;;;;-148.22;100.00;64452.44;5025699;28;20523;-63
2022/07/12 03:13:33;;;;;;;3.67;2.10;;;;;;;-148.22;100.00;64452.44;5021867;28;20061;-61
2022/07/12 03:16:00;;;;;;;3.72;2.25;;;;;;;-148.22;100.00;64452.44;5019664;28;20048;-62
2022/07/12 03:18:26;;;;;;;4.55;2.30;;;;;;;-148.22;100.00;64452.44;5021667;28;20072;-61
2022/07/12 03:20:53;;;;;;;4.10;2.40;;;;;;;-148.22;100.00;64452.44;5020673;28;20037;-61
2022/07/12 03:23:20;;;;;;;4.43;2.20;;;;;;;-148.22;100.00;64452.44;5020281;28;20041;-62
2022/07/12 03:25:47;;;;;;;4.05;2.50;;;;;;;-148.22;100.00;64452.44;5023727;28;20496;-62
2022/07/12 03:28:13;;;;;;;3.88;2.70;;;;;;;-148.22;100.00;64452.44;5019698;28;20528;-62
2022/07/12 03:30:40;;;;;;;4.10;2.33;;;;;;;-148.22;100.00;64452.44;5024461;28;20077;-61
2022/07/12 03:33:07;;;;;;;5.82;3.03;;;;;;;-148.22;100.00;64452.44;5021189;28;20394;-62
2022/07/12 03:35:35;;;;;;;4.10;2.78;;;;;;;-148.22;100.00;64452.44;5016597;28;20048;-62
2022/07/12 03:38:03;;;;;;;3.45;2.13;;;;;;;-148.22;100.00;64452.44;5023179;28;20048;-62
2022/07/12 03:40:31;;;;;;;4.57;2.28;;;;;;;-148.22;100.00;64452.44;5017920;28;20042;-62
2022/07/12 03:42:58;;;;;;;6.05;2.70;;;;;;;-148.22;100.00;64452.44;5014493;28;20124;-61
2022/07/12 03:45:25;;;;;;;5.25;3.10;;;;;;;-148.22;100.00;64452.44;5016899;28;20037;-57
2022/07/12 03:47:51;;;;;;;7.60;2.90;;;;;;;-148.22;100.00;64452.44;5023449;28;20107;-56
2022/07/12 03:50:18;;;;;;;5.65;2.60;;;;;;;-148.22;100.00;64452.44;5022777;28;20034;-58
2022/07/12 03:52:44;;;;;;;4.82;2.55;;;;;;;-148.22;100.00;64452.44;5024017;28;20063;-59
2022/07/12 03:55:13;;;;;;;4.50;2.70;;;;;;;-148.22;100.00;64452.44;5022820;28;20045;-58
2022/07/12 03:57:39;;;;;;;5.93;3.45;;;;;;;-148.22;100.00;64452.44;5018379;28;19921;-54
2022/07/12 04:00:11;;;;;;;7.47;3.92;;;;;;;-148.22;100.00;64452.44;5022876;28;20041;-60
2022/07/12 04:02:39;;;;;;;4.70;2.78;;;;;;;-148.22;100.00;64452.44;5017675;28;20037;-55
2022/07/12 04:05:07;;;;;;;4.70;2.65;;;;;;;-148.22;100.00;64452.44;5021010;28;20117;-59
2022/07/12 04:07:34;;;;;;;5.85;2.55;;;;;;;-148.22;100.00;64452.44;5023948;28;20120;-55
2022/07/12 04:10:01;;;;;;;5.38;2.70;;;;;;;-148.22;100.00;64452.44;5025322;28;20563;-57
2022/07/12 04:12:27;;;;;;;4.38;2.83;;;;;;;-148.22;100.00;64452.44;5019341;28;20046;-55
2022/07/12 04:14:54;;;;;;;4.72;2.50;;;;;;;-148.22;100.00;64452.44;5023160;28;20540;-54
2022/07/12 04:17:20;;;;;;;5.75;2.45;;;;;;;-148.22;100.00;64452.44;5024383;28;20072;-58
2022/07/12 04:19:47;;;;;;;4.43;2.70;;;;;;;-148.22;100.00;64452.44;5025431;28;20133;-58
2022/07/12 04:22:14;;;;;;;4.22;2.72;;;;;;;-148.22;100.00;64452.44;5013506;28;20045;-53
2022/07/12 04:24:40;;;;;;;5.20;3.25;;;;;;;-148.22;100.00;64452.44;5014420;28;20064;-56
2022/07/12 04:27:07;;;;;;;6.25;2.65;;;;;;;-148.22;100.00;64452.44;5018280;28;20052;-55
2022/07/12 04:29:33;;;;;;;7.72;4.18;;;;;;;-148.22;100.00;64452.44;5023251;28;20497;-66
2022/07/12 04:32:00;;;;;;;6.32;2.60;;;;;;;-148.22;100.00;64452.44;5027161;28;20049;-66
2022/07/12 04:34:26;;;;;;;6.60;3.30;;;;;;;-148.22;100.00;64452.44;5026911;28;20521;-66
2022/07/12 04:36:54;;;;;;;5.55;3.17;;;;;;;-148.22;100.00;64452.44;5003804;28;20045;-66
2022/07/12 04:39:21;;;;;;;4.47;2.60;;;;;;;-148.22;100.00;64452.44;5017491;28;20119;-66
2022/07/12 04:41:48;;;;;;;4.00;2.60;;;;;;;-148.22;100.00;64452.44;5016707;28;20072;-66
2022/07/12 04:44:14;;;;;;;5.32;3.33;;;;;;;-148.22;100.00;64452.44;5022525;28;20484;-66
2022/07/12 04:46:41;;;;;;;4.88;3.20;;;;;;;-148.22;100.00;64452.44;5021285;28;20053;-66
2022/07/12 04:49:08;;;;;;;4.53;2.90;;;;;;;-148.22;100.00;64452.44;5005978;28;20052;-67
2022/07/12 04:51:34;;;;;;;6.93;3.60;;;;;;;-148.22;100.00;64452.44;5004383;28;20042;-66
2022/07/12 04:54:01;;;;;;;6.72;2.65;;;;;;;-148.22;100.00;64452.44;5020151;28;20045;-66
2022/07/12 04:56:28;;;;;;;4.95;3.03;;;;;;;-148.22;100.00;64452.44;5032300;28;20056;-66
2022/07/12 04:58:54;;;;;;;4.47;2.97;;;;;;;-148.22;100.00;64452.44;5033640;28;20045;-66
2022/07/12 05:01:26;;;;;;;;;;;;;;;-148.22;100.00;64452.44;5019187;28;20459;-66
2022/07/12 05:03:52;;;;;;;5.40;2.65;;;;;;;-148.22;100.00;64452.44;5006448;28;19927;-66
2022/07/12 05:06:19;;;;;;;4.85;3.20;;;;;;;-148.22;100.00;64452.44;5003962;28;20038;-66
2022/07/12 05:08:46;;;;;;;5.90;2.97;;;;;;;-148.22;100.00;64452.44;5026582;28;20309;-66
2022/07/12 05:11:13;;;;;;;4.38;2.92;;;;;;;-148.22;100.00;64452.44;5012701;28;20079;-66
2022/07/12 05:13:40;;;;;;;4.43;3.13;;;;;;;-148.22;100.00;64452.44;5019744;28;20137;-66
2022/07/12 05:16:08;;;;;;;5.13;3.22;;;;;;;-148.22;100.00;64452.44;5016291;28;20049;-66
2022/07/12 05:18:35;;;;;;;7.80;3.10;;;;;;;-148.22;100.00;64452.44;5022733;28;20515;-66
2022/07/12 05:21:02;;;;;;;4.47;2.60;;;;;;;-148.22;100.00;64452.44;5005109;28;20072;-67
2022/07/12 05:23:28;;;;;;;5.38;2.60;;;;;;;-148.22;100.00;64452.44;5018083;28;20064;-67
2022/07/12 05:25:55;;;;;;;4.38;2.83;;;;;;;-148.22;100.00;64452.44;5025503;28;20230;-65
2022/07/12 05:28:21;;;;;;;5.00;3.13;;;;;;;-148.22;100.00;64452.44;5029803;28;20052;-64
2022/07/12 05:30:48;;;;;;;5.13;2.72;;;;;;;-148.22;100.00;64452.44;5013447;28;20441;-64
2022/07/12 05:33:15;;;;;;;5.07;3.17;;;;;;;-148.22;100.00;64452.44;5009041;28;20111;-65
2022/07/12 05:35:41;;;;;;;4.45;2.78;;;;;;;-148.22;100.00;64452.44;5022806;28;20061;-65
2022/07/12 05:38:08;;;;;;;4.22;2.53;;;;;;;-148.22;100.00;64452.44;5029400;28;20382;-65
2022/07/12 05:40:34;;;;;;;4.50;2.55;;;;;;;-148.22;100.00;64452.44;5019935;28;20501;-65
2022/07/12 05:43:01;;;;;;;3.53;2.20;;;;;;;-148.22;100.00;64452.44;5015781;28;20235;-65
2022/07/12 05:45:28;;;;;;;4.50;2.20;;;;;;;-148.22;100.00;64452.44;5025362;28;20126;-65
2022/07/12 05:47:54;;;;;;;3.33;2.30;;;;;;;-148.22;100.00;64452.44;5030745;28;20053;-55
2022/07/12 05:50:21;;;;;;;3.78;2.28;;;;;;;-148.22;100.00;64452.44;5035773;28;20049;-55
2022/07/12 05:55:33;;;;;;;4.93;1.90;;;;;;;-148.22;100.00;64452.44;5016382;28;20049;-56
2022/07/12 05:57:59;;;;;;;2.70;1.75;;;;;;;-148.22;100.00;64452.44;5024847;28;20053;-57
2022/07/12 06:00:26;;;;;;;2.53;1.30;;;;;;;-148.22;100.00;64452.44;5027853;28;20036;-56
2022/07/12 06:02:53;;;;;;;4.18;1.63;;;;;;;-148.22;100.00;64452.44;5038698;28;20076;-57
2022/07/12 06:05:20;;;;;;;3.25;1.63;;;;;;;-148.22;100.00;64452.44;5009608;28;20049;-56
2022/07/12 06:07:47;;;;;;;2.95;1.60;;;;;;;-148.22;100.00;64452.44;5013634;28;20073;-59
2022/07/12 06:10:13;;;;;;;2.15;1.30;;;;;;;-148.22;100.00;64452.44;5013203;28;20045;-58
2022/07/12 06:12:40;;;;;;;2.17;1.30;;;;;;;-148.22;100.00;64452.44;5009383;28;20042;-56
2022/07/12 06:15:07;;;;;;;2.53;1.08;;;;;;;-148.22;100.00;64452.44;5022476;28;20073;-56
2022/07/12 06:17:34;;;;;;;2.55;1.10;;;;;;;-148.22;100.00;64452.44;5028938;28;20074;-55
2022/07/12 06:20:02;;;;;;;1.77;0.90;;;;;;;-148.22;100.00;64452.44;5016129;28;20045;-55
2022/07/12 06:22:29;;;;;;;2.20;0.95;;;;;;;-148.22;100.00;64452.44;5009821;28;20178;-56
2022/07/12 06:24:55;;;;;;;1.60;0.98;;;;;;;-148.22;100.00;64452.44;5025380;28;20103;-56
2022/07/12 06:27:22;;;;;;;3.63;1.10;;;;;;;-148.22;100.00;64452.44;5009607;28;20069;-55
2022/07/12 06:29:48;;;;;;;1.33;0.73;;;;;;;-148.22;100.00;64452.44;5006956;28;20045;-68
2022/07/12 06:32:16;;;;;;;1.35;0.77;;;;;;;-148.22;100.00;64452.44;5015307;28;20042;-71
2022/07/12 06:34:42;;;;;;;1.55;0.70;;;;;;;-148.22;100.00;64452.44;5011587;28;20049;-68
2022/07/12 06:37:09;;;;;;;1.40;0.90;;;;;;;-148.22;100.00;64452.44;5023379;28;20497;-69
2022/07/12 06:39:36;;;;;;;1.45;0.70;;;;;;;-148.22;100.00;64452.44;5025408;28;20037;-68
2022/07/12 06:42:03;;;;;;;1.48;0.70;;;;;;;-148.22;100.00;64452.44;5027527;28;20044;-69
2022/07/12 06:44:31;;;;;;;1.15;0.73;;;;;;;-148.22;100.00;64452.44;5033752;28;20045;-69
2022/07/12 06:46:58;;;;;;;1.45;0.75;;;;;;;-148.22;100.00;64452.44;5022098;28;20056;-70
2022/07/12 06:49:25;;;;;;;1.13;0.70;;;;;;;-148.22;100.00;64452.44;5025486;28;20561;-70
2022/07/12 06:51:52;;;;;;;1.10;0.60;;;;;;;-148.22;100.00;64452.44;5006481;28;20046;-69
2022/07/12 06:54:19;;;;;;;2.15;0.70;;;;;;;-148.22;100.00;64452.44;5030116;28;20034;-68
2022/07/12 06:56:45;;;;;;;0.93;0.60;;;;;;;-148.22;100.00;64452.44;5024673;28;20555;-68
2022/07/12 06:59:12;;;;;;;1.60;0.77;;;;;;;-148.22;100.00;64452.44;5024194;28;20052;-67
2022/07/12 07:01:42;;;;;;;2.30;0.85;;;;;;;-148.22;100.00;64452.44;5017114;28;20587;-67
2022/07/12 07:04:08;;;;;;;1.63;0.88;;;;;;;-148.22;100.00;64452.44;5013388;28;20072;-67
2022/07/12 07:06:35;;;;;;;2.97;1.70;;;;;;;-148.22;100.00;64452.44;5012764;28;20421;-68
2022/07/12 07:09:06;;;;;;;1.80;0.85;;;;;;;-148.22;100.00;64452.44;5010985;28;20421;-69
2022/07/12 07:11:34;;;;;;;1.30;0.70;;;;;;;-148.22;100.00;64452.44;5017314;28;20049;-67
2022/07/12 07:14:01;;;;;;;1.88;0.63;;;;;;;-148.22;100.00;64452.44;5027278;28;20047;-67
2022/07/12 07:16:28;;;;;;;1.92;0.95;;;;;;;-148.22;100.00;64452.44;5014629;28;20052;-66
2022/07/12 07:18:55;;;;;;;2.67;0.90;;;;;;;-148.22;100.00;64452.44;5016354;28;20045;-67
2022/07/12 07:21:21;;;;;;;1.00;0.52;;;;;;;-148.22;100.00;64452.44;5006765;28;20034;-67
2022/07/12 07:23:48;;;;;;;1.65;0.73;;;;;;;-148.22;100.00;64452.44;5013167;28;20103;-67
2022/07/12 07:26:15;;;;;;;1.30;0.65;;;;;;;-148.22;100.00;64452.44;5009464;28;20046;-66
2022/07/12 07:31:28;;;;;;;1.38;0.52;;;;;;;-148.22;100.00;64452.44;5013299;28;20038;-65
2022/07/12 07:33:54;;;;;;;0.77;0.50;;;;;;;-148.22;100.00;64452.44;5035953;28;20507;-67
2022/07/12 07:36:21;;;;;;;2.75;0.70;;;;;;;-148.22;100.00;64452.44;5025197;28;20064;-67
2022/07/12 07:38:47;;;;;;;1.23;0.40;;;;;;;-148.22;100.00;64452.44;5019483;28;20408;-67
2022/07/12 07:41:14;;;;;;;2.00;0.43;;;;;;;-148.22;100.00;64452.44;5024344;28;20155;-67
2022/07/12 07:43:40;;;;;;;0.80;0.45;;;;;;;-148.22;100.00;64452.44;5012086;28;20054;-68
2022/07/12 07:46:07;;;;;;;1.08;0.57;;;;;;;-148.22;100.00;64452.44;5020437;28;20056;-69
2022/07/12 07:48:34;;;;;;;1.27;0.45;;;;;;;-148.22;100.00;64452.44;5037104;28;20041;-66
2022/07/12 07:51:00;;;;;;;1.48;0.40;;;;;;;-148.22;100.00;64452.44;5010289;28;20046;-65
2022/07/12 07:53:27;;;;;;;0.73;0.50;;;;;;;-148.22;100.00;64452.44;5017808;28;20572;-66
2022/07/12 07:55:54;;;;;;;4.10;0.30;;;;;;;-148.22;100.00;64452.44;5016124;28;20041;-69
2022/07/12 07:58:20;;;;;;;0.73;0.40;;;;;;;-148.22;100.00;64452.44;5011791;28;20046;-68
2022/07/12 08:00:50;;;;;;;2.78;0.50;;;;;;;-148.22;100.00;64452.44;5012656;28;20046;-70
2022/07/12 08:03:18;;;;;;;1.70;0.40;;;;;;;-148.22;100.00;64452.44;5020133;28;20038;-69
2022/07/12 08:05:44;;;;;;;0.98;0.60;;;;;;;-148.22;100.00;64452.44;5020810;28;20052;-70
2022/07/12 08:08:11;;;;;;;1.70;0.77;;;;;;;-148.22;100.00;64452.44;5031778;28;20045;-69
2022/07/12 08:10:38;;;;;;;2.70;0.50;;;;;;;-148.22;100.00;64452.44;5020985;28;20034;-68
2022/07/12 08:13:04;;;;;;;2.38;0.45;;;;;;;-148.22;100.00;64452.44;5021811;28;20046;-68
2022/07/12 08:15:31;;;;;;;1.48;0.50;;;;;;;-148.22;100.00;64452.44;5013822;28;20060;-68
2022/07/12 08:17:58;;;;;;;4.28;0.70;;;;;;;-148.22;100.00;64452.44;5031521;28;20127;-68
2022/07/12 08:20:26;;;;;;;8.38;1.50;;;;;;;-148.22;100.00;64452.44;5023752;28;20598;-70
2022/07/12 08:23:12;;;;;;;1.05;0.47;;;;;;;-148.22;100.00;64452.44;5016926;28;20053;-67
2022/07/12 08:25:39;;;;;;;1.27;0.60;;;;;;;-148.22;100.00;64452.44;5006289;28;20049;-66
2022/07/12 08:28:05;;;;;;;1.13;0.40;;;;;;;-148.22;100.00;64452.44;5037975;28;20045;-67
2022/07/12 08:30:33;;;;;;;0.95;0.65;;;;;;;-148.22;100.00;64452.44;5016572;28;20057;-68
2022/07/12 08:32:59;;;;;;;2.00;0.52;;;;;;;-148.22;100.00;64452.44;5016778;28;20422;-68
2022/07/12 08:35:26;;;;;;;2.25;0.50;;;;;;;-148.22;100.00;64452.44;5009387;28;20138;-68
2022/07/12 08:37:53;;;;;;;0.35;0.30;;;;;;;-148.22;100.00;64452.44;5032742;28;20472;-69
2022/07/12 08:40:20;;;;;;;0.55;0.38;;;;;;;-148.22;100.00;64452.44;5023796;28;20069;-70
2022/07/12 08:42:47;;;;;;;0.68;0.35;;;;;;;-148.22;100.00;64452.44;5016549;28;20212;-69
2022/07/12 08:45:15;;;;;;;0.88;0.40;;;;;;;-148.22;100.00;64452.44;5018808;28;20046;-71
2022/07/12 08:47:42;;;;;;;0.25;0.20;;;;;;;-148.22;100.00;64452.44;5025026;28;20459;-68
2022/07/12 08:50:12;;;;;;;0.70;0.40;;;;;;;-148.22;100.00;64452.44;5023708;28;21526;-69
2022/07/12 08:52:44;;;;;;;1.60;0.40;;;;;;;-148.22;100.00;64452.44;5025634;28;20509;-70
2022/07/12 08:55:20;;;;;;;0.77;0.40;;;;;;;-148.22;100.00;64452.44;5012895;28;20072;-68
2022/07/12 08:57:48;;;;;;;0.90;0.50;;;;;;;-148.22;100.00;64452.44;5015624;28;20384;-68
2022/07/12 09:00:16;;;;;;;3.70;0.82;;;;;;;-148.22;100.00;64452.44;5021521;28;20523;-68
2022/07/12 09:02:45;;;;;;;1.60;0.50;;;;;;;-148.22;100.00;64452.44;5019796;28;20138;-67
2022/07/12 09:05:13;;;;;;;1.13;0.55;;;;;;;-148.22;100.00;64452.44;5017815;28;20084;-68
2022/07/12 09:07:40;;;;;;;1.33;0.70;;;;;;;-148.22;100.00;64452.44;5025112;28;20052;-69
2022/07/12 09:10:09;;;;;;;1.98;0.80;;;;;;;-148.22;100.00;64452.44;5033382;28;20049;-73
2022/07/12 09:12:36;;;;;;;1.70;0.80;;;;;;;-148.22;100.00;64452.44;5010764;28;20117;-73
2022/07/12 09:15:19;;;;;;;1.02;0.60;;;;;;;-148.22;100.00;64452.44;5023616;28;20057;-70
2022/07/12 09:17:56;;;;;;;1.00;0.50;;;;;;;-148.22;100.00;64452.44;5019517;28;20057;-64
2022/07/12 09:20:26;;;;;;;1.50;0.57;;;;;;;-148.22;100.00;64452.44;5021156;28;20527;-65
2022/07/12 09:22:55;;;;;;;0.57;0.50;;;;;;;-148.22;100.00;64452.44;5017552;28;20076;-70
2022/07/12 09:25:22;;;;;;;0.85;0.50;;;;;;;-148.22;100.00;64452.44;5027549;28;20055;-66
2022/07/12 09:27:54;;;;;;;0.85;0.55;;;;;;;-148.22;100.00;64452.44;5014217;28;20050;-65
2022/07/12 09:30:25;;;;;;;0.85;0.50;;;;;;;-148.22;100.00;64452.44;5019639;28;20049;-71
2022/07/12 09:36:17;;;;;;;0.90;0.43;;;;;;;-148.22;100.00;64452.44;5025464;28;20045;-72
2022/07/12 09:39:00;;;;;;;0.93;0.40;;;;;;;-148.22;100.00;64452.44;5018241;28;20042;-70
2022/07/12 09:41:27;;;;;;;0.32;0.30;;;;;;;-148.22;100.00;64452.44;5023103;28;20516;-65
2022/07/12 09:43:54;;;;;;;0.40;0.20;;;;;;;-148.22;100.00;64452.44;5021594;28;20049;-67
2022/07/12 09:46:20;;;;;;;1.02;0.40;;;;;;;-148.22;100.00;64452.44;5016577;28;20128;-65
2022/07/12 09:48:47;;;;;;;1.67;0.60;;;;;;;-148.22;100.00;64452.44;5027466;28;20041;-71
2022/07/12 09:51:16;;;;;;;1.05;0.50;;;;;;;-148.22;100.00;64452.44;5012522;28;20049;-65
2022/07/12 09:53:43;;;;;;;1.02;0.35;;;;;;;-148.22;100.00;64452.44;5036776;28;20076;-73
2022/07/12 09:56:13;;;;;;;0.35;0.30;;;;;;;-148.22;100.00;64452.44;5028509;28;20126;-73
2022/07/12 09:58:47;;;;;;;0.98;0.35;;;;;;;-148.22;100.00;64452.44;5031812;28;20042;-69
2022/07/12 10:01:15;;;;;;;0.52;0.38;;;;;;;-148.22;100.00;64452.44;5013111;28;20037;-73
2022/07/12 10:03:44;;;;;;;0.70;0.40;;;;;;;-148.22;100.00;64452.44;5028252;28;20095;-70
2022/07/12 10:06:13;;;;;;;1.02;0.30;;;;;;;-148.22;100.00;64452.44;5011157;28;20057;-71
2022/07/12 10:08:40;;;;;;;0.50;0.30;;;;;;;-148.22;100.00;64452.44;5030860;28;20045;-73
2022/07/12 10:11:07;;;;;;;2.38;0.40;;;;;;;-148.22;100.00;64452.44;5023385;28;20038;-72
2022/07/12 10:13:36;;;;;;;1.60;0.40;;;;;;;-148.22;100.00;64452.44;5023008;28;20048;-73
2022/07/12 10:16:05;;;;;;;0.52;0.40;;;;;;;-148.22;100.00;64452.44;5025229;28;20099;-71
2022/07/12 10:18:31;;;;;;;0.63;0.20;;;;;;;-148.22;100.00;64452.44;5021970;28;20037;-69
2022/07/12 10:20:58;;;;;;;0.63;0.35;;;;;;;-148.22;100.00;64452.44;5026868;28;20037;-68
2022/07/12 10:23:51;;;;;;;1.55;0.50;;;;;;;-148.22;100.00;64452.44;5016512;28;20052;-68
2022/07/12 10:26:37;;;;;;;0.60;0.35;;;;;;;-148.22;100.00;64452.44;5017014;28;20490;-69
2022/07/12 10:29:06;;;;;;;2.13;0.40;;;;;;;-148.22;100.00;64452.44;5018581;28;20554;-70
2022/07/12 10:31:37;;;;;;;0.32;0.30;;;;;;;-148.22;100.00;64452.44;5017236;28;20048;-69
2022/07/12 10:34:21;;;;;;;0.65;0.30;;;;;;;-148.22;100.00;64452.44;5022462;28;20622;-69
2022/07/12 10:36:54;;;;;;;0.40;0.30;;;;;;;-148.22;100.00;64452.44;5021313;28;20045;-69
2022/07/12 10:39:41;;;;;;;0.55;0.38;;;;;;;-148.22;100.00;64452.44;5021155;28;20115;-69
2022/07/12 10:42:07;;;;;;;0.60;0.35;;;;;;;-148.22;100.00;64452.44;5012432;28;20045;-68
2022/07/12 10:44:44;;;;;;;0.40;0.20;;;;;;;-148.22;100.00;64452.44;5025084;28;20045;-68
2022/07/12 10:47:13;;;;;;;0.65;0.40;;;;;;;-148.22;100.00;64452.44;5017920;28;20057;-69
2022/07/12 10:49:47;;;;;;;2.45;0.43;;;;;;;-148.22;100.00;64452.44;5015543;28;20050;-68
2022/07/12 10:52:22;;;;;;;1.08;0.50;;;;;;;-148.22;100.00;64452.44;5021128;28;20313;-67
2022/07/12 10:54:55;;;;;;;0.82;0.52;;;;;;;-148.22;100.00;64452.44;5023750;28;20829;-68
2022/07/12 10:57:43;;;;;;;0.88;0.40;;;;;;;-148.22;100.00;64452.44;5031200;28;20049;-69
2022/07/12 11:00:11;;;;;;;0.80;0.40;;;;;;;-148.22;100.00;64452.44;5024550;28;20602;-68
2022/07/12 11:02:38;;;;;;;0.45;0.20;;;;;;;-148.22;100.00;64452.44;5023561;28;20274;-68
2022/07/12 11:05:05;;;;;;;0.80;0.38;;;;;;;-148.22;100.00;64452.44;5024832;28;20053;-68
2022/07/12 11:07:32;;;;;;;0.73;0.40;;;;;;;-148.22;100.00;64452.44;5017210;28;20127;-72
2022/07/12 11:09:58;;;;;;;1.50;0.60;;;;;;;-148.22;100.00;64452.44;5020118;28;20056;-68
2022/07/12 11:12:29;;;;;;;0.70;0.40;;;;;;;-148.22;100.00;64452.44;5021884;28;20041;-74
2022/07/12 11:14:58;;;;;;;1.10;0.40;;;;;;;-148.22;100.00;64452.44;5011475;28;20084;-70
2022/07/12 11:17:30;;;;;;;1.55;0.40;;;;;;;-148.22;100.00;64452.44;5015277;28;20050;-72
2022/07/12 11:20:06;;;;;;;2.65;0.40;;;;;;;-148.22;100.00;64452.44;5033343;28;20367;-71
2022/07/12 11:22:33;;;;;;;0.88;0.45;;;;;;;-148.22;100.00;64452.44;5011713;28;20048;-66